Time;durP1;ratioP1;P1;durP2;ratioP2;P2;SDS_P1;SDS_P2;PMS_P1;PMS_P2;Temp;Humidity;BMP_temperature;BMP_pressure;BME280_temperature;BME280_humidity;BME280_pressure;Samples;Min_cycle;Max_cycle;Signal;HPM_P1;HPM_P2
2024/02/14 00:01:12;0.00;0.00;0.62;0.00;0.00;0.62;2.83;2.00;;;22.20;26.50;;;;;;2256190;61;20429;-67
2024/02/14 00:03:57;0.00;0.00;0.62;0.00;0.00;0.62;3.20;2.03;;;22.20;26.50;;;;;;2255644;61;20667;-68
2024/02/14 00:06:43;0.00;0.00;0.62;0.00;0.00;0.62;2.47;1.73;;;22.20;26.50;;;;;;2255765;61;20350;-66
2024/02/14 00:09:28;0.00;0.00;0.62;0.00;0.00;0.62;2.20;1.57;;;22.20;26.50;;;;;;2256295;61;20460;-68
2024/02/14 00:12:13;0.00;0.00;0.62;0.00;0.00;0.62;2.77;1.60;;;22.20;26.50;;;;;;2262953;55;20521;-66
2024/02/14 00:14:58;0.00;0.00;0.62;0.00;0.00;0.62;2.93;1.87;;;22.20;26.50;;;;;;2258702;61;20405;-68
2024/02/14 00:17:43;0.00;0.00;0.62;0.00;0.00;0.62;2.60;1.70;;;22.20;26.50;;;;;;2259523;61;20467;-69
2024/02/14 00:20:29;0.00;0.00;0.62;0.00;0.00;0.62;2.20;1.40;;;22.20;26.50;;;;;;2666341;45;20365;-69
2024/02/14 00:23:13;0.00;0.00;0.62;0.00;0.00;0.62;2.47;2.00;;;22.20;26.50;;;;;;2259461;61;20400;-68
2024/02/14 00:25:58;0.00;0.00;0.62;0.00;0.00;0.62;2.83;1.60;;;22.20;26.50;;;;;;2259107;61;20460;-68
2024/02/14 00:28:43;0.00;0.00;0.62;0.00;0.00;0.62;2.60;1.60;;;22.20;26.50;;;;;;2259479;61;20888;-68
2024/02/14 00:31:28;0.00;0.00;0.62;0.00;0.00;0.62;2.90;1.80;;;22.20;26.50;;;;;;2259641;61;20365;-69
2024/02/14 00:34:12;0.00;0.00;0.62;0.00;0.00;0.62;2.13;1.50;;;22.20;26.50;;;;;;2259228;61;20807;-68
2024/02/14 00:36:58;0.00;0.00;0.62;0.00;0.00;0.62;2.43;1.70;;;22.20;26.50;;;;;;2258996;61;20384;-70
2024/02/14 00:39:43;0.00;0.00;0.62;0.00;0.00;0.62;2.60;1.60;;;22.20;26.50;;;;;;2259640;61;20423;-68
2024/02/14 00:42:27;0.00;0.00;0.62;0.00;0.00;0.62;2.87;2.10;;;22.20;26.50;;;;;;2521233;53;20417;-69
2024/02/14 00:45:12;0.00;0.00;0.62;0.00;0.00;0.62;2.00;1.60;;;22.20;26.50;;;;;;2259250;61;20995;-67
2024/02/14 00:47:57;0.00;0.00;0.62;0.00;0.00;0.62;2.37;1.70;;;22.20;26.50;;;;;;2259301;61;20456;-68
2024/02/14 00:50:41;0.00;0.00;0.62;0.00;0.00;0.62;2.40;1.57;;;22.20;26.50;;;;;;2259547;61;20801;-68
2024/02/14 00:53:27;0.00;0.00;0.62;0.00;0.00;0.62;3.20;2.10;;;22.20;26.50;;;;;;2259410;61;20385;-68
2024/02/14 00:56:12;0.00;0.00;0.62;0.00;0.00;0.62;2.30;1.50;;;22.20;26.50;;;;;;2259273;61;20957;-68
2024/02/14 00:58:56;0.00;0.00;0.62;0.00;0.00;0.62;1.90;1.27;;;22.20;26.50;;;;;;2259197;61;20933;-68
2024/02/14 01:01:41;0.00;0.00;0.62;0.00;0.00;0.62;2.30;1.50;;;22.20;26.50;;;;;;2259653;61;20364;-68
2024/02/14 01:04:26;0.00;0.00;0.62;0.00;0.00;0.62;2.67;1.60;;;22.20;26.50;;;;;;2258885;61;20393;-68
2024/02/14 01:07:10;0.00;0.00;0.62;0.00;0.00;0.62;2.20;1.47;;;22.20;26.50;;;;;;2259417;61;20416;-68
2024/02/14 01:09:56;0.00;0.00;0.62;0.00;0.00;0.62;2.40;1.90;;;22.20;26.50;;;;;;2259344;61;20785;-68
2024/02/14 01:12:40;0.00;0.00;0.62;0.00;0.00;0.62;2.13;1.30;;;22.20;26.50;;;;;;2259356;61;20396;-68
2024/02/14 01:15:25;0.00;0.00;0.62;0.00;0.00;0.62;2.03;1.50;;;22.20;26.50;;;;;;2259143;61;20412;-68
2024/02/14 01:18:10;0.00;0.00;0.62;0.00;0.00;0.62;2.50;1.90;;;22.20;26.50;;;;;;2259082;61;20381;-68
2024/02/14 01:20:55;0.00;0.00;0.62;0.00;0.00;0.62;1.73;1.10;;;22.20;26.50;;;;;;2259884;61;20360;-68
2024/02/14 01:23:39;0.00;0.00;0.62;0.00;0.00;0.62;2.70;1.80;;;22.20;26.50;;;;;;2259639;61;20474;-68
2024/02/14 01:26:25;0.00;0.00;0.62;0.00;0.00;0.62;2.07;1.43;;;22.20;26.50;;;;;;2259629;61;20368;-68
2024/02/14 01:29:10;0.00;0.00;0.62;0.00;0.00;0.62;2.20;1.50;;;22.20;26.50;;;;;;2260067;61;20571;-68
2024/02/14 01:31:55;0.00;0.00;0.62;0.00;0.00;0.62;2.07;1.40;;;22.20;26.50;;;;;;2259439;61;20415;-68
2024/02/14 01:34:42;0.00;0.00;0.62;0.00;0.00;0.62;2.33;1.20;;;22.20;26.50;;;;;;2259696;61;20368;-68
2024/02/14 01:37:29;0.00;0.00;0.62;0.00;0.00;0.62;2.00;1.20;;;22.20;26.50;;;;;;2259905;61;20396;-68
2024/02/14 01:40:14;0.00;0.00;0.62;0.00;0.00;0.62;2.37;1.40;;;22.20;26.50;;;;;;2259898;61;20598;-68
2024/02/14 01:43:00;0.00;0.00;0.62;0.00;0.00;0.62;2.00;1.47;;;22.20;26.50;;;;;;2259542;61;20450;-69
2024/02/14 01:45:45;0.00;0.00;0.62;0.00;0.00;0.62;2.40;1.43;;;22.20;26.50;;;;;;2259674;61;20417;-68
2024/02/14 01:48:29;0.00;0.00;0.62;0.00;0.00;0.62;1.80;1.27;;;22.20;26.50;;;;;;2259851;61;20357;-68
2024/02/14 01:51:17;0.00;0.00;0.62;0.00;0.00;0.62;3.10;1.50;;;22.20;26.50;;;;;;2259959;61;20484;-68
2024/02/14 01:54:03;0.00;0.00;0.62;0.00;0.00;0.62;1.93;1.10;;;22.20;26.50;;;;;;2259799;61;20416;-69
2024/02/14 01:56:48;0.00;0.00;0.62;0.00;0.00;0.62;1.70;1.10;;;22.20;26.50;;;;;;2259927;61;20380;-68
2024/02/14 01:59:35;0.00;0.00;0.62;0.00;0.00;0.62;2.30;1.27;;;22.20;26.50;;;;;;2259866;61;20380;-68
2024/02/14 02:02:20;0.00;0.00;0.62;0.00;0.00;0.62;2.30;1.20;;;22.20;26.50;;;;;;2259904;61;20461;-68
2024/02/14 02:05:05;0.00;0.00;0.62;0.00;0.00;0.62;1.90;1.10;;;22.20;26.50;;;;;;2259709;61;20803;-68
2024/02/14 02:07:50;0.00;0.00;0.62;0.00;0.00;0.62;2.30;1.20;;;22.20;26.50;;;;;;2260194;61;20433;-68
2024/02/14 02:10:35;0.00;0.00;0.62;0.00;0.00;0.62;1.97;1.10;;;22.20;26.50;;;;;;2259897;61;20360;-68
2024/02/14 02:13:20;0.00;0.00;0.62;0.00;0.00;0.62;2.00;1.20;;;22.20;26.50;;;;;;2259933;61;20404;-68
2024/02/14 02:16:07;0.00;0.00;0.62;0.00;0.00;0.62;2.07;1.70;;;22.20;26.50;;;;;;2260032;61;20377;-68
2024/02/14 02:18:52;0.00;0.00;0.62;0.00;0.00;0.62;1.90;1.30;;;22.20;26.50;;;;;;2491448;53;20485;-69
2024/02/14 02:21:37;0.00;0.00;0.62;0.00;0.00;0.62;1.73;1.27;;;22.20;26.50;;;;;;2255808;61;20976;-69
2024/02/14 02:24:23;0.00;0.00;0.62;0.00;0.00;0.62;1.73;1.00;;;22.20;26.50;;;;;;2256914;61;20450;-69
2024/02/14 02:27:07;0.00;0.00;0.62;0.00;0.00;0.62;1.93;1.23;;;22.20;26.50;;;;;;2260043;61;20769;-69
2024/02/14 02:29:52;0.00;0.00;0.62;0.00;0.00;0.62;1.93;1.40;;;22.20;26.40;;;;;;2259536;61;20400;-68
2024/02/14 02:32:37;0.00;0.00;0.62;0.00;0.00;0.62;2.00;1.27;;;22.20;26.40;;;;;;2259681;61;20536;-67
2024/02/14 02:35:21;0.00;0.00;0.62;0.00;0.00;0.62;1.90;1.23;;;22.20;26.40;;;;;;2259544;61;20415;-67
2024/02/14 02:38:06;0.00;0.00;0.62;0.00;0.00;0.62;1.60;0.90;;;22.20;26.40;;;;;;2259939;61;20523;-68
2024/02/14 02:40:52;0.00;0.00;0.62;0.00;0.00;0.62;1.80;1.10;;;22.20;26.40;;;;;;2556949;45;20365;-68
2024/02/14 02:43:36;0.00;0.00;0.62;0.00;0.00;0.62;2.17;1.47;;;22.20;26.40;;;;;;2255346;61;20528;-67
2024/02/14 02:46:22;0.00;0.00;0.62;0.00;0.00;0.62;1.57;1.00;;;22.20;26.40;;;;;;2256634;61;20372;-68
2024/02/14 02:49:07;0.00;0.00;0.62;0.00;0.00;0.62;1.60;1.03;;;22.20;26.40;;;;;;2260000;61;20503;-68
2024/02/14 02:51:52;0.00;0.00;0.62;0.00;0.00;0.62;2.53;1.37;;;22.20;26.40;;;;;;2264051;61;20878;-68
2024/02/14 02:54:38;0.00;0.00;0.62;0.00;0.00;0.62;1.70;1.00;;;22.20;26.40;;;;;;2261950;61;20363;-68
2024/02/14 02:57:26;0.00;0.00;0.62;0.00;0.00;0.62;2.10;1.30;;;22.20;26.40;;;;;;2255785;61;20384;-68
2024/02/14 03:00:12;0.00;0.00;0.62;0.00;0.00;0.62;1.53;1.00;;;22.20;26.40;;;;;;2260031;61;20369;-69
2024/02/14 03:02:57;0.00;0.00;0.62;0.00;0.00;0.62;2.00;1.20;;;22.20;26.40;;;;;;2259076;61;20400;-69
2024/02/14 03:05:44;0.00;0.00;0.62;0.00;0.00;0.62;1.90;1.30;;;22.30;26.40;;;;;;2259409;61;20361;-69
2024/02/14 03:08:30;0.00;0.00;0.62;0.00;0.00;0.62;1.70;1.00;;;22.30;26.40;;;;;;2259456;61;20373;-69
2024/02/14 03:11:16;0.00;0.00;0.62;0.00;0.00;0.62;1.97;1.10;;;22.30;26.40;;;;;;2259822;61;20455;-68
2024/02/14 03:14:02;0.00;0.00;0.62;0.00;0.00;0.62;1.97;0.93;;;22.30;26.40;;;;;;2259716;61;20966;-69
2024/02/14 03:16:46;0.00;0.00;0.62;0.00;0.00;0.62;1.83;1.20;;;22.30;26.40;;;;;;2259495;61;20392;-68
2024/02/14 03:19:33;0.00;0.00;0.62;0.00;0.00;0.62;1.60;1.00;;;22.30;26.40;;;;;;2259513;61;20456;-69
2024/02/14 03:22:18;0.00;0.00;0.62;0.00;0.00;0.62;1.83;1.07;;;22.30;26.40;;;;;;2259933;61;20515;-69
2024/02/14 03:25:04;0.00;0.00;0.62;0.00;0.00;0.62;2.20;1.47;;;22.30;26.30;;;;;;2259214;61;20369;-69
2024/02/14 03:27:52;0.00;0.00;0.62;0.00;0.00;0.62;1.50;1.00;;;22.30;26.30;;;;;;2259746;61;20419;-68
2024/02/14 03:30:41;0.00;0.00;0.62;0.00;0.00;0.62;1.73;0.93;;;22.30;26.30;;;;;;2259582;61;20369;-68
2024/02/14 03:33:26;0.00;0.00;0.62;0.00;0.00;0.62;1.90;0.93;;;22.30;26.30;;;;;;2259168;61;20948;-69
2024/02/14 03:36:10;0.00;0.00;0.62;0.00;0.00;0.62;1.83;1.00;;;22.30;26.30;;;;;;2259688;61;20371;-68
2024/02/14 03:38:55;0.00;0.00;0.62;0.00;0.00;0.62;1.90;1.03;;;22.30;26.30;;;;;;2259427;61;20427;-68
2024/02/14 03:41:39;0.00;0.00;0.62;0.00;0.00;0.62;1.90;1.10;;;22.30;26.30;;;;;;2259289;61;20400;-68
2024/02/14 03:44:24;0.00;0.00;0.62;0.00;0.00;0.62;1.70;1.00;;;22.30;26.30;;;;;;2259724;61;20604;-68
2024/02/14 03:47:10;0.00;0.00;0.62;0.00;0.00;0.62;1.60;0.80;;;22.30;26.30;;;;;;2259376;61;20488;-68
2024/02/14 03:49:55;0.00;0.00;0.62;0.00;0.00;0.62;1.30;0.80;;;22.30;26.30;;;;;;2259594;61;20365;-68
2024/02/14 03:52:42;0.00;0.00;0.62;0.00;0.00;0.62;1.77;0.80;;;22.30;26.30;;;;;;2259469;61;21223;-69
2024/02/14 03:55:27;0.00;0.00;0.62;0.00;0.00;0.62;1.60;0.90;;;22.30;26.30;;;;;;2260005;61;20364;-69
2024/02/14 03:58:13;0.00;0.00;0.62;0.00;0.00;0.62;1.50;0.90;;;22.20;26.20;;;;;;2263578;61;20391;-68
2024/02/14 04:00:58;0.00;0.00;0.62;0.00;0.00;0.62;1.83;1.00;;;22.30;26.30;;;;;;2261418;61;20377;-68
2024/02/14 04:03:46;0.00;0.00;0.62;0.00;0.00;0.62;1.50;0.90;;;22.20;26.30;;;;;;2259191;61;20439;-69
2024/02/14 04:06:31;0.00;0.00;0.62;0.00;0.00;0.62;2.03;0.90;;;22.20;26.30;;;;;;2259602;61;20356;-69
2024/02/14 04:09:16;0.00;0.00;0.62;0.00;0.00;0.62;1.57;1.00;;;22.20;26.30;;;;;;2259513;61;20364;-69
2024/02/14 04:12:01;0.00;0.00;0.62;0.00;0.00;0.62;1.80;1.07;;;22.20;26.30;;;;;;2258983;61;20369;-69
2024/02/14 04:14:45;0.00;0.00;0.62;0.00;0.00;0.62;1.40;0.80;;;22.20;26.30;;;;;;2257996;61;20400;-70
2024/02/14 04:17:30;0.00;0.00;0.62;0.00;0.00;0.62;1.70;1.07;;;22.20;26.30;;;;;;2259066;61;20443;-69
2024/02/14 04:20:16;0.00;0.00;0.62;0.00;0.00;0.62;1.67;0.93;;;22.20;26.30;;;;;;2259573;61;20373;-69
2024/02/14 04:23:00;0.00;0.00;0.62;0.00;0.00;0.62;1.60;1.00;;;22.20;26.30;;;;;;2259123;61;20757;-69
2024/02/14 04:25:45;0.00;0.00;0.62;0.00;0.00;0.62;1.93;1.13;;;22.20;26.30;;;;;;2259078;61;20419;-69
2024/02/14 04:28:29;0.00;0.00;0.62;0.00;0.00;0.62;1.40;0.80;;;22.20;26.30;;;;;;2577662;45;20495;-69
2024/02/14 04:31:13;0.00;0.00;0.62;0.00;0.00;0.62;1.50;0.97;;;22.20;26.30;;;;;;2258417;61;20384;-69
2024/02/14 04:33:58;0.00;0.00;0.62;0.00;0.00;0.62;2.73;1.10;;;22.20;26.30;;;;;;2259393;61;20380;-69
2024/02/14 04:36:44;0.00;0.00;0.62;0.00;0.00;0.62;2.27;1.10;;;22.20;26.30;;;;;;2259638;61;20435;-69
2024/02/14 04:39:28;0.00;0.00;0.62;0.00;0.00;0.62;1.90;1.10;;;22.20;26.40;;;;;;2495645;53;20833;-69
2024/02/14 04:42:13;0.00;0.00;0.62;0.00;0.00;0.62;1.67;0.97;;;22.20;26.40;;;;;;2259454;61;20986;-69
2024/02/14 04:44:57;0.00;0.00;0.62;0.00;0.00;0.62;1.87;1.17;;;22.20;26.30;;;;;;2259076;61;20404;-68
2024/02/14 04:47:42;0.00;0.00;0.62;0.00;0.00;0.62;1.87;0.93;;;22.20;26.30;;;;;;2259456;61;20419;-69
2024/02/14 04:50:27;0.00;0.00;0.62;0.00;0.00;0.62;1.70;1.17;;;22.20;26.40;;;;;;2259678;61;20784;-68
2024/02/14 04:53:13;0.00;0.00;0.62;0.00;0.00;0.62;1.70;0.97;;;22.20;26.30;;;;;;2259303;61;20430;-68
2024/02/14 04:55:58;0.00;0.00;0.62;0.00;0.00;0.62;1.97;1.20;;;22.20;26.40;;;;;;2258902;61;20369;-68
2024/02/14 04:58:43;0.00;0.00;0.62;0.00;0.00;0.62;1.67;0.90;;;22.20;26.40;;;;;;2259504;61;20762;-68
2024/02/14 05:01:27;0.00;0.00;0.62;0.00;0.00;0.62;1.60;1.10;;;22.20;26.40;;;;;;2626269;45;20833;-68
2024/02/14 05:04:13;0.00;0.00;0.62;0.00;0.00;0.62;1.43;0.93;;;22.10;26.30;;;;;;2255296;61;20440;-68
2024/02/14 05:06:57;0.00;0.00;0.62;0.00;0.00;0.62;1.40;0.80;;;22.10;26.30;;;;;;2256142;61;20899;-68
2024/02/14 05:09:44;0.00;0.00;0.62;0.00;0.00;0.62;1.30;0.80;;;22.10;26.30;;;;;;2259403;61;20369;-68
2024/02/14 05:12:28;0.00;0.00;0.62;0.00;0.00;0.62;1.80;1.20;;;22.20;26.40;;;;;;2259383;61;20369;-68
2024/02/14 05:15:15;0.00;0.00;0.62;0.00;0.00;0.62;1.50;0.80;;;22.10;26.30;;;;;;2259175;61;20408;-68
2024/02/14 05:17:59;0.00;0.00;0.62;0.00;0.00;0.62;1.80;1.10;;;22.10;26.30;;;;;;2259222;61;20991;-68
2024/02/14 05:20:44;0.00;0.00;0.62;0.00;0.00;0.62;1.87;1.10;;;22.10;26.30;;;;;;2259596;61;20393;-68
2024/02/14 05:23:28;0.00;0.00;0.62;0.00;0.00;0.62;1.70;1.00;;;22.10;26.40;;;;;;2258923;61;20396;-68
2024/02/14 05:26:14;0.00;0.00;0.62;0.00;0.00;0.62;1.30;0.80;;;22.10;26.30;;;;;;2259562;61;20372;-68
2024/02/14 05:28:59;0.00;0.00;0.62;0.00;0.00;0.62;1.40;0.80;;;22.10;26.30;;;;;;2259620;61;20655;-68
2024/02/14 05:31:45;0.00;0.00;0.62;0.00;0.00;0.62;1.40;0.73;;;22.10;26.40;;;;;;2500993;53;20368;-68
2024/02/14 05:34:30;0.00;0.00;0.62;0.00;0.00;0.62;1.40;0.80;;;22.10;26.30;;;;;;2259436;61;20967;-69
2024/02/14 05:37:15;0.00;0.00;0.62;0.00;0.00;0.62;1.60;0.97;;;22.10;26.40;;;;;;2259523;61;20416;-68
2024/02/14 05:39:59;0.00;0.00;0.62;0.00;0.00;0.62;1.90;0.90;;;22.10;26.40;;;;;;2259437;61;20391;-68
2024/02/14 05:42:46;0.00;0.00;0.62;0.00;0.00;0.62;1.63;0.90;;;22.10;26.40;;;;;;2259942;61;20388;-68
2024/02/14 05:45:31;0.00;0.00;0.62;0.00;0.00;0.62;1.90;1.10;;;22.10;26.40;;;;;;2259002;61;20508;-68
2024/02/14 05:48:15;0.00;0.00;0.62;0.00;0.00;0.62;1.30;0.70;;;22.10;26.40;;;;;;2259528;61;20404;-68
2024/02/14 05:51:00;0.00;0.00;0.62;0.00;0.00;0.62;1.47;0.90;;;22.10;26.40;;;;;;2259479;61;20477;-70
2024/02/14 05:53:45;0.00;0.00;0.62;0.00;0.00;0.62;1.70;0.90;;;22.10;26.40;;;;;;2259641;61;20798;-67
2024/02/14 05:56:29;0.00;0.00;0.62;0.00;0.00;0.62;1.60;0.93;;;22.10;26.40;;;;;;2259484;61;20444;-69
2024/02/14 05:59:15;0.00;0.00;0.62;0.00;0.00;0.62;2.00;1.20;;;22.10;26.40;;;;;;2259329;61;20361;-69
2024/02/14 06:02:02;0.00;0.00;0.62;0.00;0.00;0.62;1.93;1.10;;;22.10;26.40;;;;;;2259003;61;20903;-70
2024/02/14 06:04:47;0.00;0.00;0.62;0.00;0.00;0.62;1.67;1.00;;;22.10;26.70;;;;;;2259499;61;20930;-68
2024/02/14 06:07:32;0.00;0.00;0.62;0.00;0.00;0.62;1.73;1.10;;;22.10;26.40;;;;;;2259716;61;20507;-68
2024/02/14 06:10:17;0.00;0.00;0.62;0.00;0.00;0.62;1.67;0.93;;;22.00;26.40;;;;;;2260152;61;20381;-67
2024/02/14 06:13:02;0.00;0.00;0.62;0.00;0.00;0.62;2.33;1.07;;;22.00;26.40;;;;;;2259625;61;20439;-69
2024/02/14 06:15:48;0.00;0.00;0.62;0.00;0.00;0.62;1.90;1.10;;;22.00;26.40;;;;;;2707019;45;20362;-68
2024/02/14 06:18:32;0.00;0.00;0.62;0.00;0.00;0.62;2.30;1.37;;;22.00;26.40;;;;;;2255916;61;20390;-68
2024/02/14 06:21:17;0.00;0.00;0.62;0.00;0.00;0.62;2.00;1.30;;;22.00;26.40;;;;;;2257408;61;20416;-68
2024/02/14 06:24:03;0.00;0.00;0.62;0.00;0.00;0.62;2.37;1.40;;;22.00;26.40;;;;;;2259740;61;20853;-70
2024/02/14 06:26:48;0.00;0.00;0.62;0.00;0.00;0.62;1.93;1.30;;;22.00;26.40;;;;;;2260136;61;20954;-69
2024/02/14 06:29:32;0.00;0.00;0.62;0.00;0.00;0.62;2.20;1.30;;;22.00;26.40;;;;;;2259844;61;20365;-69
2024/02/14 06:32:18;0.00;0.00;0.62;0.00;0.00;0.62;1.70;1.00;;;22.00;26.40;;;;;;2259814;61;20404;-68
2024/02/14 06:35:04;0.00;0.00;0.62;0.00;0.00;0.62;3.40;1.50;;;22.00;27.00;;;;;;2259423;61;20467;-69
2024/02/14 06:37:48;0.00;0.00;0.62;0.00;0.00;0.62;1.73;1.37;;;22.00;26.40;;;;;;2559913;45;20381;-69
2024/02/14 06:40:33;0.00;0.00;0.62;0.00;0.00;0.62;2.00;1.50;;;22.00;26.40;;;;;;2255753;61;20497;-68
2024/02/14 06:43:19;0.00;0.00;0.62;0.00;0.00;0.62;2.37;1.70;;;22.00;26.50;;;;;;2257168;61;21007;-68
2024/02/14 06:46:04;0.00;0.00;0.62;0.00;0.00;0.62;2.63;1.50;;;22.00;26.40;;;;;;2260015;61;20891;-68
2024/02/14 06:48:49;0.00;0.00;0.62;0.00;0.00;0.62;1.60;1.07;;;22.00;26.40;;;;;;2259782;61;20414;-68
2024/02/14 06:51:34;0.00;0.00;0.62;0.00;0.00;0.62;2.33;1.43;;;22.00;26.50;;;;;;2259714;61;20373;-68
2024/02/14 06:54:19;0.00;0.00;0.62;0.00;0.00;0.62;2.13;1.30;;;22.00;26.50;;;;;;2259492;61;20435;-68
2024/02/14 06:57:05;0.00;0.00;0.62;0.00;0.00;0.62;2.50;1.50;;;22.00;26.50;;;;;;2259830;61;20519;-68
2024/02/14 06:59:49;0.00;0.00;0.62;0.00;0.00;0.62;1.77;1.33;;;22.00;26.50;;;;;;2259612;61;20380;-68
2024/02/14 07:02:34;0.00;0.00;0.62;0.00;0.00;0.62;2.20;1.37;;;22.00;26.50;;;;;;2259646;61;20380;-67
2024/02/14 07:05:20;0.00;0.00;0.62;0.00;0.00;0.62;2.10;1.40;;;22.00;26.50;;;;;;2259363;61;20376;-67
2024/02/14 07:08:05;0.00;0.00;0.62;0.00;0.00;0.62;2.70;1.60;;;22.00;26.50;;;;;;2259759;61;20771;-67
2024/02/14 07:10:50;0.00;0.00;0.62;0.00;0.00;0.62;2.43;1.60;;;22.00;26.50;;;;;;2259881;61;20380;-68
2024/02/14 07:13:34;0.00;0.00;0.62;0.00;0.00;0.62;2.00;1.63;;;22.00;26.50;;;;;;2259436;61;20404;-67
2024/02/14 07:16:19;0.00;0.00;0.62;0.00;0.00;0.62;2.87;1.93;;;22.00;26.50;;;;;;2259276;61;20365;-71
2024/02/14 07:19:04;0.00;0.00;0.62;0.00;0.00;0.62;2.87;2.17;;;22.00;26.50;;;;;;2259877;61;20365;-68
2024/02/14 07:21:50;0.00;0.00;0.62;0.00;0.00;0.62;3.80;3.17;;;22.00;26.50;;;;;;2259160;61;20431;-69
2024/02/14 07:24:36;0.00;0.00;0.62;0.00;0.00;0.62;5.40;3.90;;;22.00;26.50;;;;;;2259461;61;21011;-68
2024/02/14 07:27:23;0.00;0.00;0.62;0.00;0.00;0.62;6.33;5.47;;;22.00;26.50;;;;;;2259502;61;20372;-68
2024/02/14 07:30:15;0.00;0.00;0.62;0.00;0.00;0.62;8.90;6.70;;;22.00;26.50;;;;;;2259610;61;20361;-68
2024/02/14 07:33:01;0.00;0.00;0.62;0.00;0.00;0.62;8.53;6.80;;;22.00;26.50;;;;;;2259274;61;20480;-68
2024/02/14 07:35:47;0.00;0.00;0.62;0.00;0.00;0.62;10.00;7.37;;;22.00;26.50;;;;;;2259414;61;20368;-68
2024/02/14 07:38:33;0.00;0.00;0.62;0.00;0.00;0.62;9.13;7.10;;;22.00;26.50;;;;;;2259169;61;20405;-68
2024/02/14 07:41:17;0.00;0.00;0.62;0.00;0.00;0.62;9.43;8.40;;;22.00;26.50;;;;;;2259852;61;20401;-68
2024/02/14 07:44:02;0.00;0.00;0.62;0.00;0.00;0.62;10.80;9.07;;;22.00;26.50;;;;;;2259243;61;20431;-68
2024/02/14 07:46:46;0.00;0.00;0.62;0.00;0.00;0.62;12.60;8.97;;;22.00;26.50;;;;;;2259610;61;20361;-68
2024/02/14 07:49:31;0.00;0.00;0.62;0.00;0.00;0.62;11.80;9.67;;;22.00;26.50;;;;;;2259559;61;20423;-68
2024/02/14 07:52:15;0.00;0.00;0.62;0.00;0.00;0.62;12.13;8.77;;;22.00;27.10;;;;;;2259540;61;20381;-67
2024/02/14 07:55:02;0.00;0.00;0.62;0.00;0.00;0.62;11.63;9.73;;;22.00;26.60;;;;;;2259551;61;20369;-68
2024/02/14 07:57:46;0.00;0.00;0.62;0.00;0.00;0.62;11.67;9.53;;;22.00;26.60;;;;;;2259443;61;20388;-68
2024/02/14 08:00:31;0.00;0.00;0.62;0.00;0.00;0.62;14.83;10.70;;;22.00;26.50;;;;;;2259330;61;20900;-68
2024/02/14 08:03:15;0.00;0.00;0.62;0.00;0.00;0.62;14.40;11.77;;;22.00;26.60;;;;;;2259758;61;20487;-68
2024/02/14 08:06:00;0.00;0.00;0.62;0.00;0.00;0.62;12.90;11.50;;;22.00;26.60;;;;;;2259443;61;20826;-67
2024/02/14 08:08:45;0.00;0.00;0.62;0.00;0.00;0.62;13.60;12.03;;;22.00;26.50;;;;;;2259476;61;20365;-68
2024/02/14 08:11:31;0.00;0.00;0.62;0.00;0.00;0.62;15.30;12.20;;;22.00;26.60;;;;;;2259620;61;20396;-68
2024/02/14 08:14:15;0.00;0.00;0.62;0.00;0.00;0.62;16.50;12.50;;;22.00;26.60;;;;;;2255397;61;20405;-68
2024/02/14 08:17:00;0.00;0.00;0.62;0.00;0.00;0.62;17.20;12.93;;;21.90;26.50;;;;;;2255583;61;20455;-68
2024/02/14 08:19:44;0.00;0.00;0.62;0.00;0.00;0.62;28.53;12.90;;;22.00;26.60;;;;;;2256949;61;20361;-68
2024/02/14 08:22:29;0.00;0.00;0.62;0.00;0.00;0.62;19.83;12.40;;;22.00;26.60;;;;;;2259334;61;20369;-68
2024/02/14 08:25:14;0.00;0.00;0.62;0.00;0.00;0.62;16.40;11.97;;;22.00;26.60;;;;;;2259415;61;20369;-68
2024/02/14 08:28:00;0.00;0.00;0.62;0.00;0.00;0.62;19.30;11.93;;;22.00;26.60;;;;;;2259342;61;20487;-68
2024/02/14 08:30:45;0.00;0.00;0.62;0.00;0.00;0.62;15.40;12.17;;;22.00;26.60;;;;;;2259428;61;20384;-68
2024/02/14 08:33:29;0.00;0.00;0.62;0.00;0.00;0.62;15.87;12.10;;;22.00;26.70;;;;;;2259818;61;20428;-68
2024/02/14 08:36:14;0.00;0.00;0.62;0.00;0.00;0.62;13.10;11.17;;;21.90;26.60;;;;;;2599567;45;20357;-68
2024/02/14 08:38:58;0.00;0.00;0.62;0.00;0.00;0.62;16.50;11.50;;;22.00;26.70;;;;;;2259400;61;20416;-68
2024/02/14 08:41:46;0.00;0.00;0.62;0.00;0.00;0.62;15.70;11.03;;;21.90;26.60;;;;;;2259267;61;20459;-68
2024/02/14 08:44:32;0.00;0.00;0.62;0.00;0.00;0.62;15.00;11.73;;;22.00;26.70;;;;;;2259430;61;20392;-69
2024/02/14 08:47:17;0.00;0.00;0.62;0.00;0.00;0.62;11.97;10.17;;;21.90;26.60;;;;;;2259562;61;20361;-68
2024/02/14 08:50:03;0.00;0.00;0.62;0.00;0.00;0.62;14.27;11.73;;;21.90;26.60;;;;;;2259341;61;20452;-68
2024/02/14 08:52:47;0.00;0.00;0.62;0.00;0.00;0.62;11.80;9.90;;;21.90;26.60;;;;;;2259218;61;21037;-68
2024/02/14 08:55:33;0.00;0.00;0.62;0.00;0.00;0.62;13.63;9.77;;;21.90;26.60;;;;;;2259544;61;20454;-68
2024/02/14 08:58:18;0.00;0.00;0.62;0.00;0.00;0.62;12.07;8.53;;;22.00;26.70;;;;;;2708629;45;20440;-69
2024/02/14 09:01:04;0.00;0.00;0.62;0.00;0.00;0.62;14.33;10.37;;;21.90;26.60;;;;;;2255375;61;20802;-68
2024/02/14 09:03:48;0.00;0.00;0.62;0.00;0.00;0.62;11.00;9.47;;;21.90;26.60;;;;;;2256251;61;20484;-69
2024/02/14 09:06:33;0.00;0.00;0.62;0.00;0.00;0.62;13.70;9.53;;;21.90;26.70;;;;;;2259531;61;20397;-68
2024/02/14 09:09:19;0.00;0.00;0.62;0.00;0.00;0.62;10.80;9.50;;;21.90;26.70;;;;;;2259661;61;20784;-68
2024/02/14 09:12:04;0.00;0.00;0.62;0.00;0.00;0.62;10.77;8.60;;;21.90;26.70;;;;;;2259272;61;20372;-68
2024/02/14 09:14:49;0.00;0.00;0.62;0.00;0.00;0.62;10.70;8.27;;;21.90;26.70;;;;;;2259070;61;20364;-69
2024/02/14 09:17:35;0.00;0.00;0.62;0.00;0.00;0.62;11.57;8.40;;;21.90;26.70;;;;;;2259504;61;20461;-68
2024/02/14 09:20:20;0.00;0.00;0.62;0.00;0.00;0.62;11.33;8.40;;;21.90;26.70;;;;;;2258739;61;20412;-69
2024/02/14 09:23:04;0.00;0.00;0.62;0.00;0.00;0.62;11.20;8.63;;;21.90;26.70;;;;;;2259203;61;20376;-68
2024/02/14 09:25:49;0.00;0.00;0.62;0.00;0.00;0.62;9.33;8.30;;;21.90;26.70;;;;;;2258965;61;20805;-68
2024/02/14 09:28:35;0.00;0.00;0.62;0.00;0.00;0.62;11.80;8.90;;;21.90;26.70;;;;;;2259398;61;20368;-68
2024/02/14 09:31:20;0.00;0.00;0.62;0.00;0.00;0.62;10.33;7.93;;;21.90;26.70;;;;;;2259288;61;20368;-68
2024/02/14 09:34:05;0.00;0.00;0.62;0.00;0.00;0.62;8.63;7.00;;;22.00;26.80;;;;;;2259395;61;20444;-68
2024/02/14 09:36:50;0.00;0.00;0.62;0.00;0.00;0.62;10.23;7.80;;;21.90;26.70;;;;;;2258672;61;20563;-68
2024/02/14 09:39:36;0.00;0.00;0.62;0.00;0.00;0.62;7.50;6.67;;;21.90;26.70;;;;;;2259584;61;20376;-68
2024/02/14 09:42:28;0.00;0.00;0.62;0.00;0.00;0.62;7.53;6.70;;;21.90;26.70;;;;;;2259637;61;20364;-68
2024/02/14 09:45:14;0.00;0.00;0.62;0.00;0.00;0.62;8.80;7.50;;;21.90;26.70;;;;;;2259822;61;21182;-68
2024/02/14 09:47:59;0.00;0.00;0.62;0.00;0.00;0.62;8.60;6.87;;;21.90;26.70;;;;;;2259728;61;20838;-68
2024/02/14 09:50:45;0.00;0.00;0.62;0.00;0.00;0.62;6.83;6.13;;;21.90;26.70;;;;;;2260051;61;20404;-68
2024/02/14 09:53:32;0.00;0.00;0.62;0.00;0.00;0.62;7.23;6.20;;;21.90;26.80;;;;;;2259995;61;20603;-68
2024/02/14 09:56:21;0.00;0.00;0.62;0.00;0.00;0.62;9.10;7.17;;;21.90;26.80;;;;;;2259666;61;20376;-69
2024/02/14 09:59:06;0.00;0.00;0.62;0.00;0.00;0.62;7.53;6.73;;;21.90;26.80;;;;;;2259786;61;20959;-68
2024/02/14 10:01:52;0.00;0.00;0.62;0.00;0.00;0.62;7.80;6.43;;;22.00;26.80;;;;;;2260158;61;20400;-69
2024/02/14 10:08:57;0.00;0.00;0.62;0.00;0.00;0.62;7.23;5.90;;;21.90;26.80;;;;;;2260564;61;20875;-69
2024/02/14 10:11:42;0.00;0.00;0.62;0.00;0.00;0.62;7.40;6.07;;;21.90;26.80;;;;;;2260318;61;20377;-69
2024/02/14 10:14:27;0.00;0.00;0.62;0.00;0.00;0.62;7.90;6.00;;;21.90;26.80;;;;;;2260357;61;20423;-68
2024/02/14 10:17:18;0.00;0.00;0.62;0.00;0.00;0.62;6.40;5.20;;;21.90;26.80;;;;;;2260458;61;20381;-68
2024/02/14 10:20:07;0.00;0.00;0.62;0.00;0.00;0.62;7.03;5.30;;;21.90;26.80;;;;;;2256479;61;20432;-68
2024/02/14 10:22:52;0.00;0.00;0.62;0.00;0.00;0.62;6.40;4.93;;;22.00;26.90;;;;;;2256150;61;20945;-68
2024/02/14 10:25:38;0.00;0.00;0.62;0.00;0.00;0.62;6.00;4.83;;;22.00;26.90;;;;;;2257401;61;20369;-68
2024/02/14 10:28:23;0.00;0.00;0.62;0.00;0.00;0.62;6.43;5.27;;;22.00;26.90;;;;;;2259620;61;20365;-68
2024/02/14 10:31:10;0.00;0.00;0.62;0.00;0.00;0.62;7.27;5.73;;;22.00;26.90;;;;;;2260200;61;20392;-68
2024/02/14 10:33:56;0.00;0.00;0.62;0.00;0.00;0.62;6.33;5.67;;;22.00;26.90;;;;;;2259719;61;20400;-69
2024/02/14 10:36:43;0.00;0.00;0.62;0.00;0.00;0.62;6.23;5.50;;;22.00;26.90;;;;;;2259957;61;20807;-69
2024/02/14 10:39:31;0.00;0.00;0.62;0.00;0.00;0.62;5.40;4.63;;;22.00;26.90;;;;;;2260029;61;20895;-67
2024/02/14 10:42:16;0.00;0.00;0.62;0.00;0.00;0.62;7.33;5.03;;;22.00;26.90;;;;;;2260167;61;20822;-69
2024/02/14 10:45:03;0.00;0.00;0.62;0.00;0.00;0.62;6.70;5.07;;;22.00;26.90;;;;;;2259614;61;20397;-69
2024/02/14 10:47:51;0.00;0.00;0.62;0.00;0.00;0.62;6.13;4.60;;;22.00;26.90;;;;;;2260096;61;20368;-68
2024/02/14 10:50:39;0.00;0.00;0.62;0.00;0.00;0.62;4.87;3.93;;;22.00;26.90;;;;;;2259961;61;20758;-68
2024/02/14 10:53:25;0.00;0.00;0.62;0.00;0.00;0.62;5.77;4.77;;;22.00;26.90;;;;;;2260321;61;20397;-68
2024/02/14 10:56:10;0.00;0.00;0.62;0.00;0.00;0.62;4.67;4.17;;;22.00;26.90;;;;;;2259743;61;20962;-68